Terminal Aerodrome Forecast
Issued by NWS

Home | Current Version | Previous Version | Text Only | Print | Product List | Glossary On
Versions: 1 2 3 4 5 6 7 8 9 10 11 12 13 14 15 16
000
FTUS42 KTBW 290500
TAFRSW
TAF
KRSW 290539Z 2906/3006 11005KT P6SM FEW020 OVC100
     FM291600 14007KT P6SM VCTS SCT035CB BKN100
     FM292100 18007KT P6SM VCTS SCT025CB BKN050
     FM300200 12004KT P6SM SCT045 BKN150=

USA.gov is the U.S. government's official web portal to all federal, state and local government web resources and services.